Time;durP1;ratioP1;P1;durP2;ratioP2;P2;SDS_P1;SDS_P2;PMS_P1;PMS_P2;Temp;Humidity;BMP_temperature;BMP_pressure;BME280_temperature;BME280_humidity;BME280_pressure;Samples;Min_cycle;Max_cycle;Signal;HPM_P1;HPM_P2
2023/09/14 00:01:34;;;;;;;2.45;1.38;;;20.50;72.00;;;;;;5053534;28;20133;-30
2023/09/14 00:04:00;;;;;;;1.92;1.40;;;21.50;84.80;;;;;;5053625;28;20128;-30
2023/09/14 00:06:27;;;;;;;1.80;1.40;;;20.80;73.30;;;;;;5053532;28;20073;-30
2023/09/14 00:08:54;;;;;;;3.15;1.58;;;21.20;72.80;;;;;;5040218;28;20133;-28
2023/09/14 00:11:21;;;;;;;2.05;1.40;;;21.40;84.90;;;;;;5033347;28;20053;-30
2023/09/14 00:13:48;;;;;;;3.00;1.52;;;21.90;84.80;;;;;;5033344;28;20601;-28
2023/09/14 00:16:14;;;;;;;2.95;1.30;;;20.90;84.20;;;;;;5033065;28;20188;-28
2023/09/14 00:18:43;;;;;;;3.30;1.58;;;20.40;83.90;;;;;;5033064;28;20481;-31
2023/09/14 00:21:09;;;;;;;2.45;1.30;;;21.10;84.70;;;;;;5033030;28;20151;-28
2023/09/14 00:23:37;;;;;;;3.33;1.40;;;;;;;;;;5033049;28;20085;-29
2023/09/14 00:26:03;;;;;;;2.47;1.30;;;21.80;85.00;;;;;;5032316;28;20558;-29
2023/09/14 00:28:30;;;;;;;2.47;1.30;;;;;;;;;;5032943;28;20046;-30
2023/09/14 00:30:57;;;;;;;1.80;1.35;;;20.70;84.50;;;;;;5032808;28;20045;-31
2023/09/14 00:33:24;;;;;;;1.80;1.10;;;;;;;;;;5032961;28;20132;-28
2023/09/14 00:35:52;;;;;;;2.63;1.50;;;21.70;84.70;;;;;;5032318;28;20545;-30
2023/09/14 00:38:19;;;;;;;2.03;1.40;;;19.90;83.70;;;;;;5032502;28;20135;-31
2023/09/14 00:40:46;;;;;;;3.90;1.80;;;21.20;84.60;;;;;;5032460;28;20522;-31
2023/09/14 00:43:13;;;;;;;1.85;1.50;;;;;;;;;;5032688;28;20128;-29
2023/09/14 00:45:40;;;;;;;3.08;1.42;;;;;;;;;;5033103;28;20451;-31
2023/09/14 00:48:07;;;;;;;2.03;1.42;;;21.00;73.50;;;;;;5032653;28;20108;-30
2023/09/14 00:50:34;;;;;;;2.45;1.30;;;19.90;83.70;;;;;;5032468;28;20076;-31
2023/09/14 00:53:04;;;;;;;2.80;1.48;;;20.90;84.60;;;;;;5032538;28;20224;-31
2023/09/14 00:55:31;;;;;;;2.88;1.20;;;;;;;;;;5032571;28;20132;-31
2023/09/14 00:57:58;;;;;;;2.22;1.48;;;21.00;71.70;;;;;;5035128;28;20128;-31
2023/09/14 01:00:25;;;;;;;3.75;1.50;;;19.70;84.10;;;;;;5032255;28;20128;-28
2023/09/14 01:02:52;;;;;;;2.90;1.50;;;20.60;71.30;;;;;;5032598;28;20553;-29
2023/09/14 01:05:20;;;;;;;2.25;1.30;;;20.70;84.30;;;;;;5032439;28;20045;-29
2023/09/14 01:07:47;;;;;;;3.05;1.50;;;20.80;84.60;;;;;;5032027;28;20049;-29
2023/09/14 01:10:16;;;;;;;2.33;1.48;;;20.70;78.30;;;;;;5031580;28;20049;-28
2023/09/14 01:12:42;;;;;;;2.22;1.48;;;20.90;84.60;;;;;;5031674;28;20125;-28
2023/09/14 01:15:10;;;;;;;2.10;1.33;;;20.70;84.60;;;;;;5032327;28;20132;-28
2023/09/14 01:17:40;;;;;;;2.03;1.30;;;20.50;84.20;;;;;;5032246;28;20141;-29
2023/09/14 01:20:19;;;;;;;1.75;1.33;;;19.50;83.60;;;;;;5031594;28;20128;-29
2023/09/14 01:22:51;;;;;;;2.83;1.50;;;21.00;73.30;;;;;;5030162;28;20130;-29
2023/09/14 01:25:21;;;;;;;3.03;1.20;;;20.70;67.10;;;;;;5029274;28;20124;-29
2023/09/14 01:27:49;;;;;;;2.33;1.33;;;20.30;84.50;;;;;;5031368;28;20132;-29
2023/09/14 01:30:16;;;;;;;2.95;1.45;;;20.50;84.60;;;;;;5031418;28;20132;-29
2023/09/14 01:32:42;;;;;;;2.78;1.35;;;20.10;70.70;;;;;;5031581;28;20045;-29
2023/09/14 01:35:09;;;;;;;2.58;1.40;;;20.10;84.30;;;;;;5032076;28;20124;-29
2023/09/14 01:37:36;;;;;;;2.83;1.40;;;21.50;85.00;;;;;;5031467;28;20128;-28
2023/09/14 01:40:04;;;;;;;2.65;1.33;;;;;;;;;;5032214;28;20128;-29
2023/09/14 01:42:31;;;;;;;2.25;1.27;;;21.30;81.20;;;;;;5032314;28;20071;-28
2023/09/14 01:44:59;;;;;;;2.72;1.30;;;20.70;67.20;;;;;;5032128;28;20205;-28
2023/09/14 01:47:25;;;;;;;2.45;1.40;;;21.60;85.20;;;;;;5031261;28;20143;-29
2023/09/14 01:49:52;;;;;;;2.20;1.30;;;20.20;84.50;;;;;;5031866;28;20688;-29
2023/09/14 01:52:19;;;;;;;2.80;1.38;;;20.50;73.60;;;;;;5031993;28;20132;-29
2023/09/14 01:54:46;;;;;;;2.63;1.30;;;21.40;84.90;;;;;;5031932;28;20137;-29
2023/09/14 01:57:13;;;;;;;1.88;1.48;;;;;;;;;;5044369;28;20457;-29
2023/09/14 01:59:40;;;;;;;2.80;1.63;;;20.70;84.40;;;;;;5052025;28;20462;-29
2023/09/14 02:02:08;;;;;;;2.22;1.48;;;20.60;84.50;;;;;;5031554;28;20220;-29
2023/09/14 02:04:35;;;;;;;2.22;1.23;;;20.40;84.20;;;;;;5031695;28;20132;-28
2023/09/14 02:07:02;;;;;;;1.52;1.23;;;;;;;;;;5031941;28;20128;-29
2023/09/14 02:09:28;;;;;;;3.67;1.40;;;20.70;84.40;;;;;;5032256;28;20451;-28
2023/09/14 02:11:55;;;;;;;2.08;1.40;;;20.60;84.40;;;;;;5035703;28;20129;-28
2023/09/14 02:14:23;;;;;;;2.63;1.40;;;;;;;;;;5035439;28;20561;-30
2023/09/14 02:16:50;;;;;;;2.13;1.38;;;20.80;77.40;;;;;;5035507;28;20045;-29
2023/09/14 02:19:18;;;;;;;3.35;1.50;;;20.30;84.20;;;;;;5035572;28;20132;-29
2023/09/14 02:21:44;;;;;;;2.88;1.50;;;20.40;84.70;;;;;;5035375;28;20228;-28
2023/09/14 02:24:11;;;;;;;1.88;1.38;;;19.90;84.10;;;;;;5035825;28;20132;-29
2023/09/14 02:26:38;;;;;;;3.28;1.40;;;20.70;76.10;;;;;;5035511;28;20414;-29
2023/09/14 02:29:05;;;;;;;1.75;1.05;;;20.40;84.40;;;;;;5035527;28;20136;-28
2023/09/14 02:31:32;;;;;;;2.10;1.40;;;21.00;84.90;;;;;;5035017;28;20057;-29
2023/09/14 02:33:59;;;;;;;1.95;1.20;;;21.10;85.00;;;;;;5035504;28;20049;-28
2023/09/14 02:36:27;;;;;;;2.80;1.30;;;21.00;85.10;;;;;;5034754;28;20139;-28
2023/09/14 02:38:53;;;;;;;1.85;1.40;;;20.60;84.90;;;;;;5035084;28;20132;-28
2023/09/14 02:41:20;;;;;;;2.08;1.30;;;;;;;;;;5035391;28;20132;-29
2023/09/14 02:43:47;;;;;;;2.20;1.33;;;20.80;84.50;;;;;;5035082;28;20124;-28
2023/09/14 02:46:14;;;;;;;2.45;1.40;;;20.60;84.80;;;;;;5034624;28;20128;-28
2023/09/14 02:48:41;;;;;;;2.05;1.10;;;20.50;84.40;;;;;;5026513;28;20050;-29
2023/09/14 02:51:08;;;;;;;2.95;1.40;;;21.30;84.90;;;;;;5035437;28;20483;-28
2023/09/14 02:53:36;;;;;;;2.20;1.40;;;20.60;67.20;;;;;;5035011;28;20407;-30
2023/09/14 02:56:07;;;;;;;2.00;1.10;;;20.50;67.20;;;;;;5037782;28;20127;-29
2023/09/14 02:58:34;;;;;;;1.95;1.42;;;20.30;84.40;;;;;;5054540;28;20132;-28
2023/09/14 03:01:08;;;;;;;2.03;1.30;;;21.10;83.80;;;;;;5054933;28;20049;-28
2023/09/14 03:03:34;;;;;;;1.73;1.30;;;20.10;84.60;;;;;;5045373;28;20388;-28
2023/09/14 03:06:01;;;;;;;1.58;1.15;;;21.40;78.80;;;;;;5034640;28;20140;-28
2023/09/14 03:08:28;;;;;;;4.18;1.40;;;21.00;85.10;;;;;;5034472;28;20447;-28
2023/09/14 03:10:56;;;;;;;2.58;1.52;;;20.60;84.90;;;;;;5034416;28;20132;-28
2023/09/14 03:13:23;;;;;;;1.58;1.20;;;20.30;84.40;;;;;;5034547;28;20152;-28
2023/09/14 03:15:53;;;;;;;1.80;1.30;;;21.70;85.10;;;;;;5034448;28;20045;-28
2023/09/14 03:18:20;;;;;;;2.38;1.20;;;21.70;85.10;;;;;;5034439;28;20124;-28
2023/09/14 03:20:47;;;;;;;1.60;1.30;;;;;;;;;;5034470;28;20132;-28
2023/09/14 03:23:14;;;;;;;1.75;1.35;;;20.30;84.70;;;;;;5033784;28;20144;-29
2023/09/14 03:25:41;;;;;;;2.53;1.38;;;20.60;84.60;;;;;;5034223;28;20137;-28
2023/09/14 03:28:09;;;;;;;2.70;1.40;;;20.50;67.20;;;;;;5034043;28;20151;-29
2023/09/14 03:30:36;;;;;;;2.67;1.27;;;;;;;;;;5034556;28;20081;-29
2023/09/14 03:33:03;;;;;;;1.92;1.38;;;20.70;84.60;;;;;;5034072;28;20132;-28
2023/09/14 03:35:29;;;;;;;1.73;1.30;;;20.80;85.00;;;;;;5034170;28;20132;-28
2023/09/14 03:37:56;;;;;;;2.42;1.50;;;20.60;74.90;;;;;;5033427;28;20060;-28
2023/09/14 03:40:23;;;;;;;1.60;1.30;;;20.50;84.50;;;;;;5034262;28;20132;-29
2023/09/14 03:42:50;;;;;;;1.92;1.30;;;20.90;85.00;;;;;;5014680;28;20046;-28
2023/09/14 03:45:18;;;;;;;2.63;1.50;;;21.00;76.80;;;;;;5014408;28;20078;-29
2023/09/14 03:47:44;;;;;;;2.25;1.30;;;20.60;74.40;;;;;;5014051;28;20144;-28
2023/09/14 03:50:11;;;;;;;1.73;1.20;;;20.80;84.60;;;;;;5014228;28;20057;-29
2023/09/14 03:52:38;;;;;;;2.30;1.30;;;20.30;84.40;;;;;;5028638;28;20050;-29
2023/09/14 03:55:05;;;;;;;1.83;1.15;;;21.50;71.40;;;;;;5033773;28;20220;-28
2023/09/14 03:57:32;;;;;;;1.98;1.48;;;20.20;84.40;;;;;;5048741;28;20570;-29
2023/09/14 03:59:59;;;;;;;2.35;1.35;;;;;;;;;;5053978;28;20127;-29
2023/09/14 04:02:27;;;;;;;2.08;1.30;;;20.30;84.70;;;;;;5053412;28;20084;-28
2023/09/14 04:04:54;;;;;;;2.13;1.40;;;20.20;84.50;;;;;;5053736;28;20085;-29
2023/09/14 04:07:21;;;;;;;2.28;1.30;;;;;;;;;;5032476;28;20138;-29
2023/09/14 04:09:48;;;;;;;3.50;1.48;;;20.00;84.30;;;;;;5033591;28;20517;-28
2023/09/14 04:12:14;;;;;;;2.55;1.77;;;20.00;84.70;;;;;;5033634;28;20129;-28
2023/09/14 04:14:41;;;;;;;2.60;1.30;;;;;;;;;;5033364;28;20498;-29
2023/09/14 04:17:08;;;;;;;1.92;1.40;;;20.70;85.10;;;;;;5033184;28;20132;-29
2023/09/14 04:19:38;;;;;;;2.72;1.30;;;20.40;85.00;;;;;;5033550;28;20133;-28
2023/09/14 04:22:06;;;;;;;2.33;1.42;;;;;;;;;;5033372;28;20502;-29
2023/09/14 04:24:33;;;;;;;1.75;1.30;;;20.80;85.10;;;;;;5032848;28;20050;-28
2023/09/14 04:27:00;;;;;;;2.38;1.40;;;;;;;;;;5033078;28;20470;-28
2023/09/14 04:29:26;;;;;;;1.73;1.25;;;19.90;84.60;;;;;;5033235;28;20128;-28
2023/09/14 04:31:54;;;;;;;2.47;1.42;;;;;;;;;;5033031;28;20133;-28
2023/09/14 04:34:21;;;;;;;2.03;1.40;;;;;;;;;;5031767;28;20130;-28
2023/09/14 04:36:49;;;;;;;2.05;1.38;;;20.50;84.90;;;;;;5032326;28;20120;-28
2023/09/14 04:39:15;;;;;;;3.15;1.40;;;20.00;84.40;;;;;;5032982;28;20128;-28
2023/09/14 04:41:42;;;;;;;2.45;1.30;;;19.90;77.90;;;;;;5032674;28;20049;-29
2023/09/14 04:44:09;;;;;;;1.73;1.38;;;20.20;84.50;;;;;;5033108;28;20140;-28
2023/09/14 04:46:35;;;;;;;2.28;1.45;;;21.20;85.10;;;;;;5032477;28;20133;-28
2023/09/14 04:49:02;;;;;;;2.55;1.65;;;20.60;74.00;;;;;;5032663;28;20049;-30
2023/09/14 04:51:29;;;;;;;1.92;1.30;;;20.00;84.70;;;;;;5032694;28;20561;-30
2023/09/14 04:53:57;;;;;;;1.63;1.20;;;20.30;84.90;;;;;;5032841;28;20140;-30
2023/09/14 04:56:24;;;;;;;1.63;1.20;;;;;;;;;;5036546;28;20434;-30
2023/09/14 04:58:51;;;;;;;2.80;1.58;;;19.70;80.40;;;;;;5029546;28;20490;-31
2023/09/14 05:01:18;;;;;;;2.55;1.30;;;20.00;84.70;;;;;;5032506;28;20132;-30
2023/09/14 05:03:45;;;;;;;4.55;1.55;;;;;;;;;;5032565;28;20124;-30
2023/09/14 05:06:11;;;;;;;1.65;1.30;;;20.10;84.50;;;;;;5032677;28;20077;-30
2023/09/14 05:08:38;;;;;;;2.08;1.42;;;20.00;84.80;;;;;;5032369;28;20136;-31
2023/09/14 05:11:06;;;;;;;2.13;1.45;;;20.00;73.20;;;;;;5032601;28;20124;-30
2023/09/14 05:13:33;;;;;;;2.17;1.50;;;19.50;72.50;;;;;;5032038;28;20124;-30
2023/09/14 05:16:00;;;;;;;2.20;1.30;;;20.20;84.50;;;;;;5032334;28;20140;-30
2023/09/14 05:18:26;;;;;;;2.80;1.48;;;20.90;84.90;;;;;;5031501;28;20128;-30
2023/09/14 05:20:53;;;;;;;3.22;1.30;;;20.10;67.00;;;;;;5031504;28;20149;-30
2023/09/14 05:23:20;;;;;;;2.72;1.27;;;20.30;84.90;;;;;;5031778;28;20099;-30
2023/09/14 05:25:46;;;;;;;1.90;1.40;;;19.80;84.70;;;;;;5032224;28;20137;-30
2023/09/14 05:28:15;;;;;;;1.73;1.20;;;20.20;67.10;;;;;;5032266;28;20128;-30
2023/09/14 05:30:42;;;;;;;4.00;1.48;;;20.00;74.80;;;;;;5032082;28;20049;-31
2023/09/14 05:33:10;;;;;;;2.55;1.45;;;;;;;;;;5030809;28;20421;-30
2023/09/14 05:35:37;;;;;;;2.22;1.42;;;20.40;84.60;;;;;;5032002;28;20053;-28
2023/09/14 05:38:04;;;;;;;1.75;1.30;;;19.90;71.50;;;;;;5030804;28;20491;-29
2023/09/14 05:40:33;;;;;;;2.00;1.27;;;19.30;84.10;;;;;;5032003;28;20133;-28
2023/09/14 05:43:00;;;;;;;2.20;1.50;;;19.80;84.40;;;;;;5031896;28;20081;-28
2023/09/14 05:45:28;;;;;;;2.22;1.30;;;20.70;85.20;;;;;;5031570;28;20056;-28
2023/09/14 05:47:54;;;;;;;3.72;1.40;;;20.50;85.00;;;;;;5031871;28;20128;-28
2023/09/14 05:50:21;;;;;;;3.92;1.33;;;20.30;84.70;;;;;;5032051;28;20132;-28
2023/09/14 05:52:48;;;;;;;3.05;1.20;;;;;;;;;;5031448;28;20132;-29
2023/09/14 05:55:15;;;;;;;2.13;1.30;;;19.80;84.70;;;;;;5031513;28;20141;-28
2023/09/14 05:57:42;;;;;;;1.60;1.20;;;19.70;84.60;;;;;;5046630;28;20496;-28
2023/09/14 06:00:12;;;;;;;2.10;1.50;;;20.00;79.70;;;;;;5031715;28;20050;-28
2023/09/14 06:02:41;;;;;;;1.73;1.30;;;19.90;84.30;;;;;;5032196;28;20049;-28
2023/09/14 06:05:08;;;;;;;1.67;1.30;;;20.90;85.20;;;;;;5031866;28;20056;-28
2023/09/14 06:07:35;;;;;;;2.47;1.25;;;20.20;84.00;;;;;;5031533;28;20111;-27
2023/09/14 06:10:02;;;;;;;1.42;1.25;;;19.80;84.70;;;;;;5027193;28;20132;-28
2023/09/14 06:12:29;;;;;;;2.60;1.50;;;21.20;79.60;;;;;;5029914;28;20046;-28
2023/09/14 06:14:56;;;;;;;2.42;1.50;;;19.70;84.70;;;;;;5031873;28;20057;-27
2023/09/14 06:17:23;;;;;;;2.88;1.40;;;20.30;71.40;;;;;;5026503;28;20554;-29
2023/09/14 06:19:51;;;;;;;2.83;1.50;;;19.70;84.60;;;;;;5030474;28;20403;-29
2023/09/14 06:22:18;;;;;;;1.80;1.20;;;20.60;85.10;;;;;;5031662;28;20144;-28
2023/09/14 06:24:44;;;;;;;3.45;1.40;;;21.10;85.10;;;;;;5031385;28;20128;-28
2023/09/14 06:27:11;;;;;;;2.97;1.52;;;;;;;;;;5031042;28;20136;-29
2023/09/14 06:29:38;;;;;;;3.10;1.45;;;;;;;;;;5031286;28;20132;-28
2023/09/14 06:32:06;;;;;;;2.08;1.45;;;20.80;67.30;;;;;;5031087;28;20133;-29
2023/09/14 06:34:32;;;;;;;2.13;1.50;;;19.90;84.60;;;;;;5025274;28;20132;-28
2023/09/14 06:37:00;;;;;;;2.20;1.23;;;20.10;67.10;;;;;;5028600;28;20133;-28
2023/09/14 06:39:27;;;;;;;2.40;1.30;;;20.30;71.40;;;;;;5030394;28;20132;-28
2023/09/14 06:41:54;;;;;;;4.50;1.40;;;19.70;77.00;;;;;;5031200;28;20128;-28
2023/09/14 06:44:21;;;;;;;2.00;1.30;;;20.30;84.70;;;;;;5031619;28;20133;-28
2023/09/14 06:46:48;;;;;;;1.95;1.30;;;;;;;;;;5030975;28;20046;-29
2023/09/14 06:49:14;;;;;;;1.85;1.23;;;19.40;84.30;;;;;;5031239;28;20136;-28
2023/09/14 06:51:41;;;;;;;3.20;1.42;;;20.10;85.10;;;;;;5031148;28;20463;-28
2023/09/14 06:54:09;;;;;;;2.15;1.40;;;19.60;69.50;;;;;;5031094;28;20129;-28
2023/09/14 06:56:36;;;;;;;2.42;1.30;;;;;;;;;;5031854;28;20405;-29
2023/09/14 06:59:03;;;;;;;2.53;1.50;;;19.50;70.80;;;;;;5035072;28;20469;-28
2023/09/14 07:01:31;;;;;;;1.30;1.10;;;;;;;;;;5034254;28;20120;-28
2023/09/14 07:03:58;;;;;;;2.22;1.35;;;19.50;84.70;;;;;;5034815;28;20180;-28
2023/09/14 07:06:24;;;;;;;2.67;1.40;;;19.90;72.50;;;;;;5034054;28;20133;-28
2023/09/14 07:08:51;;;;;;;2.47;1.50;;;20.70;85.00;;;;;;5033464;28;20120;-28
2023/09/14 07:11:19;;;;;;;3.15;1.40;;;20.20;85.20;;;;;;5034059;28;20124;-28
2023/09/14 07:13:46;;;;;;;2.10;1.30;;;;;;;;;;5034267;28;20129;-31
2023/09/14 07:16:13;;;;;;;2.00;1.40;;;19.10;81.40;;;;;;5034717;28;20128;-31
2023/09/14 07:18:40;;;;;;;1.80;1.20;;;20.50;85.00;;;;;;5026431;28;20053;-31
2023/09/14 07:21:08;;;;;;;3.75;1.30;;;;;;;;;;5027550;28;20049;-31
2023/09/14 07:23:35;;;;;;;2.08;1.38;;;;;;;;;;5034319;28;20111;-31
2023/09/14 07:26:04;;;;;;;3.05;1.50;;;20.00;84.70;;;;;;5034183;28;20140;-31
2023/09/14 07:28:32;;;;;;;2.78;1.60;;;20.10;67.30;;;;;;5033918;28;20049;-30
2023/09/14 07:31:03;;;;;;;4.13;1.40;;;20.10;67.30;;;;;;5031307;28;20610;-30
2023/09/14 07:33:30;;;;;;;3.30;1.40;;;20.20;85.40;;;;;;5030894;28;20144;-31
2023/09/14 07:35:57;;;;;;;1.60;1.27;;;19.90;85.20;;;;;;5033183;28;20121;-32
2023/09/14 07:38:23;;;;;;;1.73;1.27;;;19.90;79.60;;;;;;5025568;28;20124;-31
2023/09/14 07:40:50;;;;;;;2.13;1.20;;;19.90;84.80;;;;;;5030096;28;20153;-28
2023/09/14 07:43:17;;;;;;;5.43;1.13;;;20.40;74.30;;;;;;5032335;28;20061;-28
2023/09/14 07:45:45;;;;;;;3.15;1.40;;;19.90;80.60;;;;;;5025296;28;20582;-29
2023/09/14 07:48:12;;;;;;;2.25;1.30;;;20.10;85.30;;;;;;5025492;28;20129;-29
2023/09/14 07:50:41;;;;;;;1.77;1.20;;;20.10;67.30;;;;;;5032812;28;20226;-28
2023/09/14 07:53:08;;;;;;;1.70;1.20;;;19.80;84.80;;;;;;5032775;28;20501;-29
2023/09/14 07:55:35;;;;;;;2.83;1.30;;;19.30;84.50;;;;;;5016178;28;20057;-28
2023/09/14 07:58:02;;;;;;;2.10;1.40;;;;;;;;;;5047426;28;20453;-30
2023/09/14 08:00:29;;;;;;;3.50;1.50;;;;;;;;;;5032381;28;20552;-31
2023/09/14 08:02:57;;;;;;;2.83;1.27;;;19.30;82.50;;;;;;5032639;28;20045;-28
2023/09/14 08:05:24;;;;;;;2.47;1.13;;;;;;;;;;5027732;28;20463;-29
2023/09/14 08:07:51;;;;;;;4.38;1.67;;;20.30;68.40;;;;;;5031486;28;20080;-28
2023/09/14 08:10:18;;;;;;;2.47;1.30;;;;;;;;;;5032227;28;20183;-29
2023/09/14 08:12:45;;;;;;;1.63;1.20;;;19.90;85.10;;;;;;5032464;28;20049;-28
2023/09/14 08:15:12;;;;;;;1.67;1.30;;;20.30;80.20;;;;;;5032261;28;20128;-28
2023/09/14 08:17:39;;;;;;;1.42;1.10;;;20.00;84.70;;;;;;5032038;28;20837;-28
2023/09/14 08:20:09;;;;;;;3.33;1.20;;;19.60;84.90;;;;;;5032735;28;20053;-28
2023/09/14 08:22:36;;;;;;;3.05;1.10;;;;;;;;;;5032575;28;20135;-28
2023/09/14 08:25:06;;;;;;;1.77;1.10;;;;;;;;;;5031042;28;20125;-30
2023/09/14 08:27:33;;;;;;;2.40;1.20;;;20.50;70.00;;;;;;5031332;28;20056;-29
2023/09/14 08:30:03;;;;;;;1.67;1.20;;;;;;;;;;5031685;28;20128;-28
2023/09/14 08:32:30;;;;;;;1.88;1.25;;;;;;;;;;5032146;28;20045;-28
2023/09/14 08:34:58;;;;;;;2.85;1.40;;;20.10;79.40;;;;;;5029268;28;20136;-28
2023/09/14 08:37:26;;;;;;;2.08;1.30;;;20.00;67.20;;;;;;5031372;28;20072;-29
2023/09/14 08:39:53;;;;;;;2.40;1.30;;;;;;;;;;5031975;28;20056;-30
2023/09/14 08:42:20;;;;;;;3.08;1.20;;;20.00;70.70;;;;;;5031565;28;20058;-31
2023/09/14 08:44:47;;;;;;;2.13;1.08;;;;;;;;;;5030186;28;20144;-30
2023/09/14 08:47:14;;;;;;;1.52;1.00;;;20.50;68.20;;;;;;5022710;28;20100;-31
2023/09/14 08:49:41;;;;;;;1.80;1.15;;;;;;;;;;5031543;28;20132;-30
2023/09/14 08:52:08;;;;;;;1.90;1.10;;;19.70;70.20;;;;;;5030366;28;20132;-31
2023/09/14 08:54:36;;;;;;;2.00;1.17;;;20.00;67.20;;;;;;5030402;28;20128;-30
2023/09/14 08:57:05;;;;;;;1.88;1.10;;;20.00;67.10;;;;;;5028862;28;20051;-31
2023/09/14 08:59:32;;;;;;;1.95;1.23;;;;;;;;;;5031138;28;20052;-31
2023/09/14 09:01:59;;;;;;;1.60;1.02;;;21.00;71.80;;;;;;5031067;28;20060;-31
2023/09/14 09:04:26;;;;;;;1.80;1.30;;;;;;;;;;5030173;28;20121;-30
2023/09/14 09:06:53;;;;;;;2.13;1.30;;;;;;;;;;5033436;28;20077;-30
2023/09/14 09:09:21;;;;;;;1.20;0.98;;;20.00;69.50;;;;;;5050923;28;20136;-30
2023/09/14 09:11:49;;;;;;;1.27;0.93;;;20.00;67.10;;;;;;5051241;28;20056;-29
2023/09/14 09:14:15;;;;;;;1.58;1.10;;;20.30;85.10;;;;;;5036893;28;20128;-28
2023/09/14 09:16:42;;;;;;;1.30;1.00;;;;;;;;;;5031231;28;20048;-28
2023/09/14 09:19:10;;;;;;;2.90;1.48;;;;;;;;;;5030874;28;20137;-29
2023/09/14 09:21:37;;;;;;;4.00;1.40;;;19.70;80.50;;;;;;5031263;28;20399;-28
2023/09/14 09:24:04;;;;;;;2.22;1.10;;;19.40;69.10;;;;;;5031443;28;20128;-28
2023/09/14 09:26:35;;;;;;;2.28;1.30;;;19.70;84.30;;;;;;5031064;28;20140;-28
2023/09/14 09:29:13;;;;;;;4.28;1.35;;;20.10;67.00;;;;;;5031028;28;20046;-29
2023/09/14 09:31:41;;;;;;;1.98;1.20;;;19.80;66.80;;;;;;5031535;28;20060;-28
2023/09/14 09:34:09;;;;;;;3.80;1.38;;;19.00;84.30;;;;;;5031151;28;20080;-28
2023/09/14 09:36:36;;;;;;;2.25;1.42;;;20.30;84.70;;;;;;5030311;28;20107;-28
2023/09/14 09:39:04;;;;;;;2.95;1.50;;;20.00;66.90;;;;;;5030972;28;20132;-29
2023/09/14 09:41:32;;;;;;;2.60;1.50;;;20.00;66.90;;;;;;5031263;28;20057;-29
2023/09/14 09:43:59;;;;;;;2.88;1.50;;;20.30;70.50;;;;;;5030588;28;20053;-28
2023/09/14 09:46:27;;;;;;;2.67;1.50;;;20.30;84.50;;;;;;5030577;28;20077;-29
2023/09/14 09:48:54;;;;;;;3.90;1.60;;;19.90;84.50;;;;;;5030992;28;20136;-31
2023/09/14 09:51:21;;;;;;;2.80;1.40;;;20.10;73.00;;;;;;5031029;28;20080;-31
2023/09/14 09:54:06;;;;;;;3.50;1.88;;;20.40;81.00;;;;;;5030834;28;20045;-31
2023/09/14 09:56:34;;;;;;;5.50;1.70;;;20.10;66.80;;;;;;5038089;28;20084;-30
2023/09/14 09:59:03;;;;;;;2.85;1.40;;;20.10;66.80;;;;;;5050853;28;20422;-30
2023/09/14 10:01:32;;;;;;;4.75;1.77;;;19.80;76.80;;;;;;5045424;28;20054;-31
2023/09/14 10:03:59;;;;;;;4.22;1.60;;;21.10;84.90;;;;;;5031050;28;20042;-31
2023/09/14 10:06:26;;;;;;;4.00;1.75;;;19.80;69.30;;;;;;5030964;28;20132;-29
2023/09/14 10:08:53;;;;;;;3.38;1.60;;;20.10;66.70;;;;;;5029392;28;20125;-29
2023/09/14 10:11:22;;;;;;;4.15;1.55;;;19.20;83.80;;;;;;5030320;28;20045;-28
2023/09/14 10:13:49;;;;;;;4.05;1.83;;;20.40;71.50;;;;;;5030474;28;20558;-28
2023/09/14 10:16:16;;;;;;;5.43;2.50;;;;;;;;;;5030631;28;20049;-29
2023/09/14 10:18:44;;;;;;;3.90;1.52;;;19.90;84.40;;;;;;5030196;28;20129;-28
2023/09/14 10:21:11;;;;;;;4.38;2.13;;;21.20;84.90;;;;;;5029193;28;20053;-28
2023/09/14 10:23:37;;;;;;;3.55;1.52;;;20.50;84.00;;;;;;5030655;28;20129;-28
2023/09/14 10:26:05;;;;;;;3.60;1.60;;;;;;;;;;5030273;28;20132;-29
2023/09/14 10:28:32;;;;;;;3.65;1.40;;;20.40;84.00;;;;;;5030339;28;20486;-28
2023/09/14 10:30:58;;;;;;;2.25;1.50;;;20.40;81.30;;;;;;5030549;28;20145;-28
2023/09/14 10:33:25;;;;;;;6.82;1.67;;;20.20;66.30;;;;;;5031471;28;20144;-28
2023/09/14 10:35:54;;;;;;;2.08;1.30;;;20.50;66.50;;;;;;5032212;28;20136;-29
2023/09/14 10:38:22;;;;;;;2.30;1.40;;;21.00;70.50;;;;;;5033874;28;20141;-29
2023/09/14 10:40:49;;;;;;;3.90;1.55;;;;;;;;;;5033896;28;20046;-29
2023/09/14 10:43:15;;;;;;;2.88;1.52;;;21.50;84.50;;;;;;5032742;28;20550;-28
2023/09/14 10:45:43;;;;;;;2.90;1.35;;;19.30;83.20;;;;;;5034225;28;20120;-28
2023/09/14 10:48:15;;;;;;;2.83;1.40;;;20.50;66.40;;;;;;5033935;28;20049;-28
2023/09/14 10:50:42;;;;;;;2.92;1.38;;;19.70;83.50;;;;;;5033428;28;20514;-28
2023/09/14 10:53:10;;;;;;;5.18;1.65;;;19.80;83.50;;;;;;5033988;28;20120;-28
2023/09/14 10:55:38;;;;;;;2.88;1.33;;;20.90;83.60;;;;;;5026850;28;20128;-28
2023/09/14 10:58:05;;;;;;;2.33;1.48;;;21.80;72.20;;;;;;5020079;28;20116;-29
2023/09/14 11:00:33;;;;;;;2.65;1.45;;;20.40;83.50;;;;;;5015424;28;20128;-28
2023/09/14 11:03:00;;;;;;;2.90;1.40;;;;;;;;;;5025496;28;20136;-29
2023/09/14 11:05:27;;;;;;;3.92;1.70;;;20.70;83.60;;;;;;5018692;28;20124;-28
2023/09/14 11:07:59;;;;;;;3.30;1.50;;;20.70;83.70;;;;;;5018125;28;20086;-28
2023/09/14 11:10:28;;;;;;;2.75;1.20;;;20.60;66.20;;;;;;5020073;28;20041;-28
2023/09/14 11:13:23;;;;;;;3.42;1.55;;;20.50;82.90;;;;;;5025006;28;20124;-27
2023/09/14 11:15:54;;;;;;;2.88;1.70;;;20.40;83.50;;;;;;5024115;28;20121;-31
2023/09/14 11:18:22;;;;;;;2.58;1.33;;;;;;;;;;5024615;28;20399;-31
2023/09/14 11:20:48;;;;;;;3.58;1.50;;;20.80;83.70;;;;;;5023157;28;20124;-30
2023/09/14 11:23:15;;;;;;;2.67;1.30;;;21.00;83.80;;;;;;5024366;28;20179;-30
2023/09/14 11:25:43;;;;;;;2.75;1.42;;;20.80;65.80;;;;;;5024201;28;20126;-30
2023/09/14 11:28:19;;;;;;;3.08;1.50;;;20.80;65.70;;;;;;5028280;28;20140;-30
2023/09/14 11:30:48;;;;;;;2.25;1.35;;;20.40;72.00;;;;;;5030706;28;20129;-30
2023/09/14 11:33:14;;;;;;;3.17;1.60;;;20.60;78.30;;;;;;5034161;28;20573;-30
2023/09/14 11:35:45;;;;;;;3.58;1.52;;;20.40;69.80;;;;;;5033432;28;20554;-28
2023/09/14 11:38:16;;;;;;;2.97;1.33;;;20.40;65.40;;;;;;5033502;28;20100;-29
2023/09/14 11:40:44;;;;;;;3.63;1.40;;;20.90;73.60;;;;;;5034215;28;20053;-29
2023/09/14 11:43:20;;;;;;;2.55;1.60;;;20.40;76.50;;;;;;5033713;28;20132;-28
2023/09/14 11:45:47;;;;;;;3.58;1.70;;;20.60;82.50;;;;;;5033738;28;20140;-28
2023/09/14 11:48:14;;;;;;;2.78;1.40;;;21.20;83.60;;;;;;5033411;28;20602;-28
2023/09/14 11:50:41;;;;;;;3.63;1.52;;;21.80;83.90;;;;;;5034227;28;20128;-28
2023/09/14 11:53:10;;;;;;;3.35;1.50;;;20.50;82.90;;;;;;5033963;28;20132;-28
2023/09/14 11:55:39;;;;;;;2.72;1.40;;;20.80;83.20;;;;;;5032155;28;20426;-28
2023/09/14 11:58:07;;;;;;;2.33;1.55;;;21.10;83.60;;;;;;5013844;28;20077;-28
2023/09/14 12:00:37;;;;;;;2.75;1.40;;;20.90;83.30;;;;;;5013871;28;20137;-28
2023/09/14 12:03:04;;;;;;;3.13;1.60;;;21.30;83.40;;;;;;5024161;28;20052;-28
2023/09/14 12:05:32;;;;;;;3.13;1.65;;;21.00;72.70;;;;;;5033381;28;20154;-29
2023/09/14 12:07:59;;;;;;;4.28;1.67;;;20.60;83.20;;;;;;5033123;28;20061;-28
2023/09/14 12:10:26;;;;;;;2.00;1.20;;;;;;;;;;5033497;28;20049;-28
2023/09/14 12:12:53;;;;;;;4.00;1.65;;;21.10;83.20;;;;;;5033422;28;20132;-28
2023/09/14 12:15:22;;;;;;;3.10;1.40;;;21.60;83.70;;;;;;5024932;28;20050;-29
2023/09/14 12:17:52;;;;;;;2.97;1.60;;;20.40;83.00;;;;;;5029909;28;20129;-29
2023/09/14 12:20:19;;;;;;;3.47;1.48;;;;;;;;;;5022368;28;20133;-28
2023/09/14 12:22:46;;;;;;;2.50;1.40;;;;;;;;;;5020341;28;20137;-28
2023/09/14 12:25:13;;;;;;;3.35;1.60;;;20.70;82.90;;;;;;5025518;28;20132;-28
2023/09/14 12:27:40;;;;;;;3.70;1.45;;;20.10;71.10;;;;;;5019634;28;20140;-29
2023/09/14 12:30:08;;;;;;;1.92;1.50;;;19.90;82.00;;;;;;5021614;28;20052;-28
2023/09/14 12:32:36;;;;;;;4.50;1.67;;;20.80;82.40;;;;;;5032588;28;20077;-28
2023/09/14 12:35:04;;;;;;;3.20;1.45;;;21.10;82.30;;;;;;5021770;28;20050;-29
2023/09/14 12:37:30;;;;;;;4.07;1.77;;;21.00;82.70;;;;;;5026329;28;20045;-28
2023/09/14 12:39:57;;;;;;;2.88;1.70;;;20.80;82.70;;;;;;5014410;28;20121;-29
2023/09/14 12:42:25;;;;;;;2.35;1.60;;;21.20;65.20;;;;;;5019605;28;20501;-29
2023/09/14 12:44:52;;;;;;;3.08;1.48;;;21.30;65.30;;;;;;5023953;28;20129;-28
2023/09/14 12:47:19;;;;;;;2.08;1.60;;;;;;;;;;5032746;28;20137;-28
2023/09/14 12:49:47;;;;;;;2.92;1.40;;;21.20;65.20;;;;;;5032334;28;20136;-31
2023/09/14 12:52:15;;;;;;;2.22;1.35;;;21.70;82.70;;;;;;5016935;28;20056;-28
2023/09/14 12:54:43;;;;;;;4.07;1.70;;;20.90;73.70;;;;;;5013159;28;20054;-29
2023/09/14 12:57:11;;;;;;;3.22;1.50;;;21.20;82.50;;;;;;5028958;28;20060;-28
2023/09/14 12:59:39;;;;;;;3.30;1.45;;;;;;;;;;5032211;28;20054;-29
2023/09/14 13:02:05;;;;;;;2.95;1.52;;;22.20;82.90;;;;;;5032054;28;20041;-28
2023/09/14 13:04:36;;;;;;;2.70;1.58;;;21.10;82.80;;;;;;5032398;28;20132;-28
2023/09/14 13:07:04;;;;;;;2.80;1.38;;;21.20;65.30;;;;;;5032079;28;20088;-28